METAR-Geschichte Noord Nederlandse Zweefvliegclub (NL-0036)

27. Mai 2022

Uhrzeit Code Wetter Temp. Sichtweite Wolkendecke Wind METAR/SPECI
7:25 pm
V
55 °F 6¼ mi+ - 290° 290° 30 kt METAR EHMA 271725Z AUTO 29030KT 9999 FEW019 13/08 Q1019
6:55 pm
M
55 °F 6¼ mi+ 2.200 ft 290° 290° 30 kt METAR EHMA 271655Z AUTO 29030KT 9999 SCT019 BKN022 13/08 Q1018
6:25 pm
M
55 °F 6¼ mi+ 2.200 ft 290° 290° 25 kt METAR EHMA 271625Z AUTO 29025KT 9999 FEW019 BKN022 BKN028 13/08 Q1018
5:55 pm
V
54 °F 6¼ mi+ 3.600 ft 290° 290° 26 kt METAR EHMA 271555Z AUTO 29026KT 9999 FEW019 SCT026 BKN036 12/08 Q1018
5:25 pm
M
54 °F 6¼ mi+ 2.400 ft 300° 300° 26 kt METAR EHMA 271525Z AUTO 30026KT 9999 SCT018 BKN024 BKN034 12/08 Q1019
4:55 pm
M
54 °F 6¼ mi+ 2.500 ft 290° 290° 26 kt METAR EHMA 271455Z AUTO 29026KT 9999 SCT018 SCT022 BKN025 12/07 Q1019
4:25 pm
M
54 °F 6¼ mi+ 2.300 ft 290° 290° 25 kt METAR EHMA 271425Z AUTO 29025KT 9999 SCT018 BKN023 BKN027 12/07 Q1019
3:55 pm
M
54 °F 6¼ mi+ 2.100 ft 290° 290° 24 kt METAR EHMA 271355Z AUTO 29024KT 9999 SCT018 BKN021 BKN027 12/07 Q1019
3:25 pm
V
54 °F 6¼ mi+ 3.000 ft 290° 290° 23 kt METAR EHMA 271325Z AUTO 29023KT 9999 FEW018 SCT023 BKN030 12/08 Q1019
2:55 pm
V
54 °F 6¼ mi+ - 290° 290° 24 kt METAR EHMA 271255Z AUTO 29024KT 9999 FEW019 SCT028 12/07 Q1019
2:25 pm
V
54 °F 6¼ mi+ 3.600 ft 290° 290° 24 kt METAR EHMA 271225Z AUTO 29024KT 9999 FEW019 SCT022 BKN036 12/07 Q1018
1:55 pm
V
54 °F 6¼ mi+ 3.500 ft 290° 290° 25 kt METAR EHMA 271155Z AUTO 29025KT 9999 FEW020 SCT024 BKN035 12/07 Q1018
1:25 pm
V
54 °F 6¼ mi+ 3.000 ft 290° 290° 24 kt METAR EHMA 271125Z AUTO 29024KT 9999 FEW022 BKN030 BKN037 12/07 Q1018
12:55 pm
V
54 °F 6¼ mi+ 3.300 ft 290° 290° 23 kt METAR EHMA 271055Z AUTO 29023KT 9999 SCT022 SCT029 BKN033 12/06 Q1018
12:25 pm
M
54 °F 6¼ mi+ 2.900 ft 300° 300° 25 kt METAR EHMA 271025Z AUTO 30025KT 9999 FEW022 BKN029 BKN035 12/06 Q1018
11:55 am
V
54 °F 6¼ mi+ 3.200 ft 290° 290° 24 kt METAR EHMA 270955Z AUTO 29024KT 9999 SCT023 SCT027 BKN032 12/06 Q1018
11:25 am
M
54 °F 6¼ mi+ 2.600 ft 300° 300° 24 kt METAR EHMA 270925Z AUTO 30024KT 9999 SCT023 BKN026 BKN031 12/06 Q1018
10:55 am
M
54 °F 6¼ mi+ 2.800 ft 290° 290° 24 kt METAR EHMA 270855Z AUTO 29024KT 9999 SCT024 BKN028 BKN032 12/06 Q1017
10:25 am
M
54 °F 6¼ mi+ 2.800 ft 280° 280° 18 - 31 kt METAR EHMA 270825Z AUTO 28018G31KT 9999 SCT024 BKN028 BKN032 12/06 Q1017
9:55 am
V
54 °F 6¼ mi+ 3.300 ft 290° 290° 23 kt METAR EHMA 270755Z AUTO 29023KT 9999 SCT025 SCT029 BKN033 12/06 Q1017
9:25 am
V
54 °F 6¼ mi+ - 290° 290° 23 kt METAR EHMA 270725Z AUTO 29023KT 9999 FEW027 SCT033 12/06 Q1017
8:55 am
V
54 °F 6¼ mi+ - 300° 300° 24 kt METAR EHMA 270655Z AUTO 30024KT 9999 FEW028 12/06 Q1017
8:25 am
V
54 °F 6¼ mi+ - 290° 290° 28 kt METAR EHMA 270625Z AUTO 29028KT 9999 FEW030 12/05 Q1017
7:55 am
V
54 °F 6¼ mi+ - 280° 280° 23 kt METAR EHMA 270555Z AUTO 28023KT 9999 FEW030 12/05 Q1016
7:25 am
V
54 °F 6¼ mi+ - 280° 280° 24 kt METAR EHMA 270525Z AUTO 28024KT 9999 FEW029 SCT039 12/05 Q1016
6:55 am
V
55 °F 6¼ mi+ - 290° 290° 22 kt METAR EHMA 270455Z AUTO 29022KT 9999 FEW029 SCT035 13/06 Q1016
6:25 am
V
55 °F 6¼ mi+ - 290° 290° 25 kt METAR EHMA 270425Z AUTO 29025KT 9999 FEW034 SCT048 13/06 Q1016
5:55 am
V
55 °F 6¼ mi+ - 290° 290° 26 kt METAR EHMA 270355Z AUTO 29026KT 9999 FEW027 SCT034 13/05 Q1016
5:25 am
V
55 °F 6¼ mi+ - 290° 290° 23 kt METAR EHMA 270325Z AUTO 29023KT 9999 FEW026 13/06 Q1016
4:55 am
V
55 °F 6¼ mi+ - 290° 290° 20 kt METAR EHMA 270255Z AUTO 29020KT 9999 FEW024 13/07 Q1016
4:25 am
V
55 °F 6¼ mi+ - 290° 290° 18 kt METAR EHMA 270225Z AUTO 29018KT 9999 FEW024 13/07 Q1016
3:55 am
V
57 °F 6¼ mi+ - 290° 290° 21 kt METAR EHMA 270155Z AUTO 29021KT 9999 NSC 14/07 Q1016
3:25 am
V
57 °F 6¼ mi+ - 300° 300° 22 kt METAR EHMA 270125Z AUTO 30022KT 9999 FEW048 14/06 Q1016
2:55 am
V
57 °F 6¼ mi+ - 290° 290° 20 kt METAR EHMA 270055Z AUTO 29020KT 9999 NSC 14/09 Q1016
2:25 am
V
57 °F 6¼ mi+ - 300° 300° 22 kt METAR EHMA 270025Z AUTO 30022KT 9999 FEW045/// 14/10 Q1016
1:55 am
V
57 °F 6¼ mi+ - 290° 290° 17 kt METAR EHMA 262355Z AUTO 29017KT 9999 FEW045 14/11 Q1016
1:25 am
V
57 °F 6¼ mi+ - 280° 280° 18 kt METAR EHMA 262325Z AUTO 28018KT 9999 NSC 14/11 Q1016
12:55 am
V
57 °F 6¼ mi+ - 290° 290° 19 kt METAR EHMA 262255Z AUTO 29019KT 9999 NSC 14/12 Q1016
12:25 am
V
59 °F 6¼ mi+ - 280° 280° 21 kt METAR EHMA 262225Z AUTO 28021KT 9999 NSC 15/12 Q1016

26. Mai 2022

Uhrzeit Code Wetter Temp. Sichtweite Wolkendecke Wind METAR/SPECI
11:55 pm
V
59 °F 6¼ mi+ - 270° 270° 21 kt METAR EHMA 262155Z AUTO 27021KT 9999 NSC 15/12 Q1016
11:25 pm
V
59 °F 6¼ mi+ - 270° 270° 22 kt METAR EHMA 262125Z AUTO 27022KT 9999 NSC 15/12 Q1016
10:55 pm
V
59 °F 6¼ mi+ - 260° 260° 22 kt METAR EHMA 262055Z AUTO 26022KT 9999 FEW031 SCT042 15/13 Q1016
10:25 pm
V
59 °F 6¼ mi+ 3.700 ft 250° 250° 23 kt METAR EHMA 262025Z AUTO 25023KT 9999 FEW031 BKN037 BKN042 15/13 Q1016
9:55 pm
V
59 °F 6¼ mi+ 3.900 ft 260° 260° 24 kt METAR EHMA 261955Z AUTO 26024KT 9999 -RA FEW015CB SCT030 BKN039 15/13 Q1015 RERA REDZ
9:25 pm
M
59 °F 6¼ mi+ 2.700 ft 250° 250° 24 kt METAR EHMA 261925Z AUTO 25024KT 9999 FEW024 BKN027 BKN032 15/13 Q1015
8:55 pm
V
59 °F 6¼ mi+ 3.200 ft 250° 250° 23 kt METAR EHMA 261855Z AUTO 25023KT 9999 FEW008 SCT026 BKN032 15/13 Q1015
8:25 pm
V
59 °F 6¼ mi+ 3.200 ft 240° 240° 23 kt METAR EHMA 261825Z AUTO 24023KT 9999 FEW005 SCT008 BKN032 15/13 Q1015
7:55 pm
M
57 °F 6¼ mi+ 1.300 ft 240° 240° 24 kt METAR EHMA 261755Z AUTO 24024KT 9999 FEW005 SCT011 BKN013 14/13 Q1016
7:25 pm
M
59 °F 6¼ mi+ 2.000 ft 240° 240° 23 kt METAR EHMA 261725Z AUTO 24023KT 9999 FEW009 SCT015 BKN020 15/12 Q1016
6:55 pm
M
57 °F 6¼ mi+ 2.000 ft 250° 250° 23 kt METAR EHMA 261655Z AUTO 25023KT 9999 DZRA FEW012 SCT016 BKN020 14/12 Q1017
6:25 pm
V
59 °F 6¼ mi+ 3.100 ft 240° 240° 22 kt METAR EHMA 261625Z AUTO 24022KT 9999 FEW018 SCT022 BKN031 15/11 Q1017
5:55 pm
V
59 °F 6¼ mi+ 4.100 ft 250° 250° 19 kt METAR EHMA 261555Z AUTO 25019KT 9999 FEW019 BKN041 OVC047 15/10 Q1017
5:25 pm
V
57 °F 6¼ mi+ 4.700 ft 250° 250° 20 kt METAR EHMA 261525Z AUTO 25020KT 9999 FEW016 SCT043 OVC047 14/10 Q1018
4:55 pm
V
57 °F 6¼ mi+ 4.700 ft 260° 260° 20 kt METAR EHMA 261455Z AUTO 26020KT 9999 FEW016 SCT043 BKN047 14/10 Q1018
4:25 pm
V
57 °F 6¼ mi+ - 250° 250° 19 kt METAR EHMA 261425Z AUTO 25019KT 9999 -RA FEW035 14/11 Q1018
3:55 pm
V
57 °F 6¼ mi+ - 250° 250° 21 kt METAR EHMA 261355Z AUTO 25021KT 9999 FEW019 SCT041 14/10 Q1018
3:25 pm
V
59 °F 6¼ mi+ - 260° 260° 18 kt METAR EHMA 261325Z AUTO 26018KT 9999 FEW019 SCT034 15/10 Q1018
2:55 pm
V
57 °F 6¼ mi+ - 280° 280° 16 kt METAR EHMA 261255Z AUTO 28016KT 9999 FEW026 SCT037 14/10 Q1018
2:25 pm
V
57 °F 6¼ mi+ - 280° 280° 18 kt METAR EHMA 261225Z AUTO 28018KT 9999 FEW040 14/09 Q1018
1:55 pm
V
57 °F 6¼ mi+ - 280° 280° 17 kt METAR EHMA 261155Z AUTO 28017KT 9999 FEW041 SCT047 14/10 Q1018
1:25 pm
V
57 °F 6¼ mi+ 4.600 ft 280° 280° 18 kt METAR EHMA 261125Z AUTO 28018KT 9999 FEW040 BKN046 14/10 Q1018
12:55 pm
V
57 °F 6¼ mi+ - 280° 280° 17 kt METAR EHMA 261055Z AUTO 28017KT 9999 FEW030 SCT042 14/11 Q1018
12:25 pm
V
57 °F 6¼ mi+ - 270° 270° 16 kt METAR EHMA 261025Z AUTO 27016KT 9999 FEW030 14/10 Q1018
11:55 am
V
57 °F 6¼ mi+ - 270° 270° 17 kt METAR EHMA 260955Z AUTO 27017KT 9999 NSC 14/10 Q1018
11:25 am
V
57 °F 6¼ mi+ - 280° 280° 17 kt METAR EHMA 260925Z AUTO 28017KT 9999 NSC 14/09 Q1018
10:55 am
V
57 °F 6¼ mi+ - 270° 270° 17 kt METAR EHMA 260855Z AUTO 27017KT 9999 FEW016 14/09 Q1017
10:25 am
V
57 °F 6¼ mi+ - 270° 270° 17 kt METAR EHMA 260825Z AUTO 27017KT 9999 FEW016 14/10 Q1017
9:55 am
V
57 °F 6¼ mi+ - 270° 270° 18 kt METAR EHMA 260755Z AUTO 27018KT 9999 FEW016 14/10 Q1017
9:25 am
V
57 °F 6¼ mi+ - 270° 270° 17 kt METAR EHMA 260725Z AUTO 27017KT 9999 NSC 14/10 Q1017
8:55 am
V
57 °F 6¼ mi+ - 280° 280° 16 kt METAR EHMA 260655Z AUTO 28016KT 9999 NSC 14/10 Q1016
8:25 am
V
57 °F 6¼ mi+ - 280° 280° 18 kt METAR EHMA 260625Z AUTO 28018KT 9999 NSC 14/10 Q1016
7:55 am
V
57 °F 6¼ mi+ - 280° 280° 18 kt METAR EHMA 260555Z AUTO 28018KT 9999 NSC 14/10 Q1016
7:25 am
V
57 °F 6¼ mi+ - 280° 280° 18 kt METAR EHMA 260525Z AUTO 28018KT 9999 NSC 14/10 Q1015
6:55 am
V
57 °F 6¼ mi+ - 280° 280° 16 kt METAR EHMA 260455Z AUTO 28016KT 9999 NSC 14/10 Q1015
6:25 am
V
57 °F 6¼ mi+ - 280° 280° 18 kt METAR EHMA 260425Z AUTO 28018KT 9999 NSC 14/09 Q1015
5:55 am
V
57 °F 6¼ mi+ - 280° 280° 17 kt METAR EHMA 260355Z AUTO 28017KT 9999 FEW047 14/10 Q1015
5:25 am
V
57 °F 6¼ mi+ - 280° 280° 18 kt METAR EHMA 260325Z AUTO 28018KT 9999 SCT044 14/10 Q1014
4:55 am
V
57 °F 6¼ mi+ - 290° 290° 19 kt METAR EHMA 260255Z AUTO 29019KT 9999 FEW044 14/10 Q1014
4:25 am
V
57 °F 6¼ mi+ - 290° 290° 21 kt METAR EHMA 260225Z AUTO 29021KT 9999 NSC 14/10 Q1014
3:55 am
V
57 °F 6¼ mi+ - 290° 290° 22 kt METAR EHMA 260155Z AUTO 29022KT 9999 NSC 14/10 Q1013
3:25 am
V
59 °F 6¼ mi+ - 280° 280° 21 kt METAR EHMA 260125Z AUTO 28021KT 9999 SCT040 15/11 Q1013
2:55 am
V
59 °F 6¼ mi+ - 270° 270° 18 kt METAR EHMA 260055Z AUTO 27018KT 9999 FEW024 SCT041 15/11 Q1013
2:25 am
V
57 °F 6¼ mi+ - 250° 250° 16 kt METAR EHMA 260025Z AUTO 25016KT 9999 FEW044/// 14/12 Q1013
1:55 am
V
57 °F 6¼ mi+ - 250° 250° 18 kt METAR EHMA 252355Z AUTO 25018KT 9999 NSC 14/12 Q1013
1:25 am
V
57 °F 6¼ mi+ - 250° 250° 18 kt METAR EHMA 252325Z AUTO 25018KT 9999 NSC 14/13 Q1013
12:55 am
V
57 °F 6¼ mi+ - 250° 250° 21 kt METAR EHMA 252255Z AUTO 25021KT 9999 FEW007 14/13 Q1013
12:25 am
V
57 °F 6¼ mi+ - 250° 250° 20 kt METAR EHMA 252225Z AUTO 25020KT 9999 ////// 14/13 Q1013

25. Mai 2022

Uhrzeit Code Wetter Temp. Sichtweite Wolkendecke Wind METAR/SPECI
11:55 pm
V
57 °F 6¼ mi+ - 240° 240° 22 kt METAR EHMA 252155Z AUTO 24022KT 9999 FEW008 14/12 Q1012
11:25 pm
V
59 °F 6¼ mi+ - 240° 240° 23 kt METAR EHMA 252125Z AUTO 24023KT 9999 FEW009 SCT011 15/12 Q1012
10:55 pm
M
59 °F 6¼ mi+ 2.700 ft 240° 240° 23 kt METAR EHMA 252055Z AUTO 24023KT 9999 FEW009 SCT011 BKN027 15/12 Q1012
10:25 pm
M
59 °F 6¼ mi+ 1.500 ft 240° 240° 26 kt METAR EHMA 252025Z AUTO 24026KT 9999 FEW010 SCT013 BKN015 15/12 Q1012
9:55 pm
M
59 °F 6¼ mi+ 1.400 ft 230° 230° 24 kt METAR EHMA 251955Z AUTO 23024KT 9999 FEW010 SCT012 BKN014 15/12 Q1012
9:25 pm
M
57 °F 6¼ mi+ 1.400 ft 230° 230° 26 kt METAR EHMA 251925Z AUTO 23026KT 9999 FEW011 BKN014 BKN016 14/12 Q1012
8:55 pm
M
57 °F 6¼ mi+ 1.300 ft 230° 230° 25 kt METAR EHMA 251855Z AUTO 23025KT 9999 FEW010 BKN013 BKN016 14/12 Q1011
8:25 pm
M
57 °F 6¼ mi+ 1.400 ft 230° 230° 25 kt METAR EHMA 251825Z AUTO 23025KT 9999 FEW009 SCT011 BKN014 14/12 Q1011
7:55 pm
M
57 °F 6¼ mi+ 1.000 ft 230° 230° 23 kt METAR EHMA 251755Z AUTO 23023KT 9999 FEW004 SCT009 BKN010 14/12 Q1011 REDZ
7:25 pm
M
55 °F 5⅝ mi 1.000 ft 220° 220° 21 kt METAR EHMA 251725Z AUTO 22021KT 9000 -RA FEW003 SCT005 BKN010 13/12 Q1011
6:55 pm
M
55 °F 4⅜ mi 2.000 ft 230° 230° 25 kt METAR EHMA 251655Z AUTO 23025KT 7000 -RA FEW006 SCT016 BKN020 13/11 Q1011
6:25 pm
M
57 °F 6¼ mi+ 2.900 ft 240° 240° 26 kt METAR EHMA 251625Z AUTO 24026KT 9999 -RA FEW014 SCT019 BKN029 14/11 Q1012
5:55 pm
V
59 °F 6¼ mi+ - 230° 230° 28 kt METAR EHMA 251555Z AUTO 23028KT 9999 FEW022 SCT025 15/09 Q1012
5:25 pm
V
59 °F 6¼ mi+ - 230° 230° 27 kt METAR EHMA 251525Z AUTO 23027KT 9999 FEW024 SCT028 15/09 Q1012
4:55 pm
V
59 °F 6¼ mi+ - 230° 230° 26 kt METAR EHMA 251455Z AUTO 23026KT 9999 FEW022 SCT025 15/09 Q1012
Ältere Daten

Laden Sie unsere App herunter

Einfacher Zugriff auf das gesamte Flugwetter auf Ihrem Mobiltelefon und Tablet.
Mit vielen Funktionen, die auf der Website nicht verfügbar sind, wie Offline-Unterstützung und eine persönliche Flughafenliste.

Wir und Dritte verfolgen dein Internetverhalten auf unserer Website mit Cookies. Wenn du fortfährst, gehen wir davon aus, dass du mit unserer Cookie-Richtlinie einverstanden bist. Mehr erfahren